createdAt,value
2019-05-10T00:00:55.696Z,10.23
2019-05-10T00:03:42.795Z,10.24
2019-05-10T00:06:27.244Z,10.27
2019-05-10T00:08:52.924Z,10.32
2019-05-10T00:11:38.472Z,10.32
2019-05-10T00:14:13.250Z,10.29
2019-05-10T00:16:39.088Z,10.22
2019-05-10T00:19:04.989Z,10.21
2019-05-10T00:21:30.818Z,10.18
2019-05-10T00:23:56.870Z,10.18
2019-05-10T00:26:22.674Z,10.12
2019-05-10T00:28:48.494Z,10.13
2019-05-10T00:31:14.272Z,10.08
2019-05-10T00:33:40.078Z,10.08
2019-05-10T00:36:06.110Z,10.08
2019-05-10T00:38:31.946Z,10.06
2019-05-10T00:40:57.736Z,10.06
2019-05-10T00:43:23.786Z,10.06
2019-05-10T00:45:49.612Z,10.02
2019-05-10T00:48:15.387Z,9.98
2019-05-10T00:50:41.192Z,9.93
2019-05-10T00:53:06.985Z,9.91
2019-05-10T00:55:33.074Z,9.91
2019-05-10T00:57:58.884Z,9.95
2019-05-10T01:00:24.689Z,9.91
2019-05-10T01:02:50.497Z,9.84
2019-05-10T01:05:16.296Z,9.82
2019-05-10T01:07:42.113Z,9.80
2019-05-10T01:10:08.101Z,9.82
2019-05-10T01:12:34.203Z,9.79
2019-05-10T01:15:00.014Z,9.79
2019-05-10T01:17:26.107Z,9.78
2019-05-10T01:19:52.006Z,9.79
2019-05-10T01:22:18.122Z,9.86
2019-05-10T01:24:43.992Z,9.85
2019-05-10T01:27:10.031Z,9.89
2019-05-10T01:29:35.857Z,9.85
2019-05-10T01:32:01.842Z,9.89
2019-05-10T01:34:27.951Z,9.83
2019-05-10T01:36:53.990Z,9.81
2019-05-10T01:39:20.049Z,9.81
2019-05-10T01:41:46.095Z,9.76
2019-05-10T01:44:11.899Z,9.77
2019-05-10T01:46:37.725Z,9.78
2019-05-10T01:49:03.529Z,9.79
2019-05-10T01:51:29.313Z,9.78
2019-05-10T01:53:58.111Z,9.76
2019-05-10T01:56:24.250Z,9.79
2019-05-10T01:58:53.215Z,9.77
2019-05-10T02:01:19.295Z,9.79
2019-05-10T02:03:48.420Z,9.80
2019-05-10T02:06:14.221Z,9.82
2019-05-10T02:08:43.028Z,9.76
2019-05-10T02:11:08.821Z,9.80
2019-05-10T02:13:34.621Z,9.75
2019-05-10T02:16:00.655Z,9.77
2019-05-10T02:18:26.449Z,9.77
2019-05-10T02:20:55.547Z,9.85
2019-05-10T02:23:21.344Z,9.85
2019-05-10T02:25:50.229Z,9.88
2019-05-10T02:28:16.003Z,9.95
2019-05-10T02:30:44.593Z,9.93
2019-05-10T02:33:10.370Z,9.86
2019-05-10T02:35:38.008Z,9.72
2019-05-10T02:38:03.916Z,9.69
2019-05-10T02:40:32.791Z,9.72
2019-05-10T02:42:58.849Z,9.69
2019-05-10T02:45:29.571Z,9.66
2019-05-10T02:47:55.441Z,9.69
2019-05-10T02:50:21.221Z,9.65
2019-05-10T02:52:47.029Z,9.68
2019-05-10T02:55:12.960Z,9.71
2019-05-10T02:57:41.983Z,9.67
2019-05-10T03:00:08.596Z,9.75
2019-05-10T03:02:34.864Z,9.82
2019-05-10T03:05:01.397Z,9.80
2019-05-10T03:07:34.000Z,9.85
2019-05-10T03:10:00.935Z,9.88
2019-05-10T03:12:27.028Z,9.89
2019-05-10T03:14:55.799Z,9.92
2019-05-10T03:17:22.303Z,9.95
2019-05-10T03:19:50.920Z,9.99
2019-05-10T03:22:17.045Z,9.94
2019-05-10T03:24:43.097Z,9.96
2019-05-10T03:27:08.897Z,9.90
2019-05-10T03:29:34.693Z,9.90
2019-05-10T03:32:00.612Z,9.92
2019-05-10T03:34:26.394Z,9.95
2019-05-10T03:36:52.302Z,10.00
2019-05-10T03:39:21.335Z,10.06
2019-05-10T03:41:47.170Z,9.99
2019-05-10T03:44:16.224Z,10.09
2019-05-10T03:46:42.292Z,9.98
2019-05-10T03:49:09.121Z,9.83
2019-05-10T03:51:35.159Z,9.84
2019-05-10T03:54:03.981Z,9.85
2019-05-10T03:56:30.132Z,9.84
2019-05-10T03:58:58.793Z,9.96
2019-05-10T04:01:24.797Z,9.97
2019-05-10T04:03:50.894Z,9.89
2019-05-10T04:06:16.683Z,9.79
2019-05-10T04:08:42.511Z,9.84
2019-05-10T04:11:11.204Z,9.82
2019-05-10T04:13:37.006Z,9.85
2019-05-10T04:16:05.571Z,9.84
2019-05-10T04:18:31.650Z,9.86
2019-05-10T04:20:59.291Z,9.89
2019-05-10T04:23:25.113Z,9.90
2019-05-10T04:25:50.870Z,9.92
2019-05-10T04:28:16.914Z,9.90
2019-05-10T04:30:43.634Z,9.91
2019-05-10T04:33:13.024Z,9.87
2019-05-10T04:35:38.829Z,9.90
2019-05-10T04:38:07.378Z,9.94
2019-05-10T04:40:33.200Z,9.97
2019-05-10T04:43:02.038Z,9.99
2019-05-10T04:45:27.879Z,10.08
2019-05-10T04:47:57.045Z,10.18
2019-05-10T04:50:22.841Z,10.26
2019-05-10T04:52:51.837Z,10.32
2019-05-10T04:55:17.898Z,10.40
2019-05-10T04:57:50.436Z,10.48
2019-05-10T05:00:15.057Z,10.45
2019-05-10T05:02:41.144Z,10.48
2019-05-10T05:05:07.448Z,10.57
2019-05-10T05:07:36.286Z,10.62
2019-05-10T05:10:04.791Z,10.67
2019-05-10T05:12:30.577Z,10.72
2019-05-10T05:14:56.389Z,10.67
2019-05-10T05:17:22.169Z,10.70
2019-05-10T05:19:48.234Z,10.60
2019-05-10T05:22:14.034Z,10.57
2019-05-10T05:24:42.841Z,10.72
2019-05-10T05:27:08.759Z,10.71
2019-05-10T05:29:37.597Z,10.69
2019-05-10T05:32:03.833Z,10.66
2019-05-10T05:34:29.722Z,10.67
2019-05-10T05:36:55.759Z,10.75
2019-05-10T05:39:24.563Z,10.79
2019-05-10T05:41:52.157Z,10.80
2019-05-10T05:44:26.085Z,10.92
2019-05-10T05:46:49.091Z,11.06
2019-05-10T05:49:14.880Z,11.03
2019-05-10T05:51:40.749Z,11.13
2019-05-10T05:54:06.859Z,11.24
2019-05-10T05:56:32.954Z,11.34
2019-05-10T05:58:58.782Z,11.39
2019-05-10T06:01:29.493Z,11.47
2019-05-10T06:04:00.204Z,11.58
2019-05-10T06:06:23.694Z,11.79
2019-05-10T06:08:54.100Z,11.94
2019-05-10T06:11:17.551Z,12.01
2019-05-10T06:13:43.373Z,12.12
2019-05-10T06:16:14.565Z,12.35
2019-05-10T06:18:41.633Z,12.49
2019-05-10T06:21:07.508Z,12.55
2019-05-10T06:23:35.303Z,12.30
2019-05-10T06:26:00.996Z,12.23
2019-05-10T06:28:56.499Z,12.27
2019-05-10T06:30:55.094Z,12.18
2019-05-10T06:33:20.916Z,12.41
2019-05-10T06:35:46.981Z,12.66
2019-05-10T06:38:13.077Z,12.74
2019-05-10T06:40:46.306Z,12.65
2019-05-10T06:43:13.491Z,12.58
2019-05-10T06:45:35.116Z,12.30
2019-05-10T06:48:00.960Z,12.23
2019-05-10T06:50:30.143Z,12.32
2019-05-10T06:53:00.494Z,12.60
2019-05-10T06:55:25.607Z,12.76
2019-05-10T06:57:59.510Z,12.69
2019-05-10T07:00:19.529Z,12.75
2019-05-10T07:02:45.304Z,13.02
2019-05-10T07:05:11.204Z,13.26
2019-05-10T07:07:45.428Z,13.13
2019-05-10T07:10:17.918Z,13.16
2019-05-10T07:12:34.663Z,13.10
2019-05-10T07:15:03.351Z,12.97
2019-05-10T07:17:28.420Z,12.98
2019-05-10T07:19:55.393Z,13.02
2019-05-10T07:22:26.288Z,13.10
2019-05-10T07:24:48.957Z,13.17
2019-05-10T07:27:14.741Z,13.04
2019-05-10T07:29:42.989Z,13.11
2019-05-10T07:32:08.488Z,13.09
2019-05-10T07:34:37.331Z,13.19
2019-05-10T07:37:03.409Z,13.10
2019-05-10T07:39:32.640Z,13.14
2019-05-10T07:42:00.421Z,13.20
2019-05-10T07:44:26.702Z,13.25
2019-05-10T07:46:56.369Z,13.31
2019-05-10T07:49:23.974Z,13.34
2019-05-10T07:51:48.505Z,13.31
2019-05-10T07:54:14.555Z,13.39
2019-05-10T07:56:45.885Z,13.25
2019-05-10T07:59:08.318Z,13.29
2019-05-10T08:01:34.942Z,13.42
2019-05-10T08:04:00.842Z,13.58
2019-05-10T08:06:33.876Z,13.87
2019-05-10T08:08:55.601Z,14.22
2019-05-10T08:11:22.593Z,14.27
2019-05-10T08:13:48.640Z,14.24
2019-05-10T08:16:22.727Z,14.25
2019-05-10T08:18:45.265Z,14.41
2019-05-10T08:21:21.825Z,14.56
2019-05-10T08:23:40.996Z,14.43
2019-05-10T08:26:10.953Z,14.14
2019-05-10T08:28:37.844Z,14.47
2019-05-10T08:31:02.578Z,14.76
2019-05-10T08:33:28.482Z,14.90
2019-05-10T08:36:00.506Z,15.04
2019-05-10T08:38:22.092Z,15.01
2019-05-10T08:40:48.148Z,15.14
2019-05-10T08:43:16.641Z,15.16
2019-05-10T08:45:45.049Z,14.96
2019-05-10T08:48:09.668Z,15.14
2019-05-10T08:50:49.331Z,15.45
2019-05-10T08:53:10.585Z,15.89
2019-05-10T08:55:32.103Z,16.36
2019-05-10T08:57:58.031Z,16.07
2019-05-10T09:00:41.739Z,16.32
2019-05-10T09:02:52.183Z,16.73
2019-05-10T09:05:22.642Z,16.80
2019-05-10T09:07:45.733Z,16.53
2019-05-10T09:10:12.889Z,16.65
2019-05-10T09:12:41.764Z,16.44
2019-05-10T09:15:10.327Z,16.68
2019-05-10T09:17:35.221Z,17.08
2019-05-10T09:20:02.704Z,17.19
2019-05-10T09:22:33.502Z,16.73
2019-05-10T09:24:56.298Z,16.94
2019-05-10T09:27:22.489Z,16.88
2019-05-10T09:29:48.558Z,16.69
2019-05-10T09:32:14.337Z,16.96
2019-05-10T09:34:42.664Z,17.18
2019-05-10T09:37:13.352Z,17.70
2019-05-10T09:39:36.086Z,17.15
2019-05-10T09:42:07.711Z,16.68
2019-05-10T09:44:29.897Z,16.53
2019-05-10T09:46:55.696Z,16.62
2019-05-10T09:49:23.214Z,17.09
2019-05-10T09:51:49.221Z,16.81
2019-05-10T09:54:15.009Z,16.80
2019-05-10T09:56:45.833Z,16.77
2019-05-10T09:59:11.962Z,16.09
2019-05-10T10:01:38.025Z,15.99
2019-05-10T10:04:03.841Z,15.85
2019-05-10T10:06:32.402Z,15.24
2019-05-10T10:09:00.722Z,15.24
2019-05-10T10:11:27.858Z,15.00
2019-05-10T10:13:59.202Z,15.30
2019-05-10T10:16:21.373Z,15.21
2019-05-10T10:18:47.757Z,15.28
2019-05-10T10:21:18.847Z,15.29
2019-05-10T10:23:41.639Z,15.43
2019-05-10T10:26:07.465Z,15.46
2019-05-10T10:28:36.436Z,15.49
2019-05-10T10:31:05.330Z,15.53
2019-05-10T10:33:29.302Z,15.24
2019-05-10T10:36:04.066Z,15.29
2019-05-10T10:38:23.050Z,15.70
2019-05-10T10:40:49.123Z,15.94
2019-05-10T10:43:18.042Z,15.66
2019-05-10T10:45:44.154Z,15.80
2019-05-10T10:48:12.710Z,15.99
2019-05-10T10:50:37.662Z,16.25
2019-05-10T10:53:03.456Z,16.60
2019-05-10T10:55:33.587Z,16.96
2019-05-10T10:57:57.746Z,17.23
2019-05-10T11:00:34.266Z,17.17
2019-05-10T11:03:01.287Z,17.51
2019-05-10T11:05:27.344Z,17.88
2019-05-10T11:07:53.395Z,18.12
2019-05-10T11:10:23.007Z,17.98
2019-05-10T11:12:51.121Z,17.86
2019-05-10T11:15:22.029Z,17.59
2019-05-10T11:17:44.668Z,17.21
2019-05-10T11:20:11.489Z,17.01
2019-05-10T11:22:41.981Z,17.06
2019-05-10T11:25:09.666Z,17.05
2019-05-10T11:27:33.663Z,16.84
2019-05-10T11:30:00.941Z,16.35
2019-05-10T11:32:27.148Z,16.12
2019-05-10T11:34:52.956Z,15.62
2019-05-10T11:37:30.273Z,15.51
2019-05-10T11:39:47.053Z,15.60
2019-05-10T11:42:15.538Z,15.89
2019-05-10T11:44:49.377Z,16.04
2019-05-10T11:47:22.498Z,16.24
2019-05-10T11:49:36.643Z,16.16
2019-05-10T11:52:02.435Z,16.30
2019-05-10T11:54:28.218Z,16.35
2019-05-10T11:56:58.484Z,16.50
2019-05-10T11:59:22.009Z,16.22
2019-05-10T12:04:24.055Z,16.13
2019-05-10T12:06:49.921Z,15.92
2019-05-10T12:09:12.575Z,15.83
2019-05-10T12:11:43.101Z,15.81
2019-05-10T12:14:06.181Z,15.93
2019-05-10T12:16:33.414Z,16.10
2019-05-10T12:19:07.144Z,16.10
2019-05-10T12:21:27.529Z,16.06
2019-05-10T12:23:56.398Z,15.78
2019-05-10T12:26:03.777Z,16.17
2019-05-10T12:28:50.899Z,15.83
2019-05-10T12:31:17.255Z,16.06
2019-05-10T12:33:45.479Z,16.05
2019-05-10T12:36:22.398Z,15.69
2019-05-10T12:38:38.893Z,15.39
2019-05-10T12:41:05.513Z,15.41
2019-05-10T12:43:31.486Z,15.69
2019-05-10T12:45:57.314Z,15.62
2019-05-10T12:48:23.710Z,15.73
2019-05-10T12:50:52.256Z,15.75
2019-05-10T12:53:18.490Z,15.89
2019-05-10T12:55:44.456Z,15.93
2019-05-10T12:58:10.263Z,15.77
2019-05-10T13:00:36.040Z,15.72
2019-05-10T13:03:12.340Z,15.95
2019-05-10T13:05:31.926Z,16.15
2019-05-10T13:07:57.833Z,16.19
2019-05-10T13:10:23.704Z,16.06
2019-05-10T13:12:49.814Z,15.81
2019-05-10T13:15:15.795Z,15.61
2019-05-10T13:17:50.701Z,15.77
2019-05-10T13:20:10.218Z,16.01
2019-05-10T13:22:39.139Z,15.98
2019-05-10T13:25:05.849Z,15.87
2019-05-10T13:27:31.654Z,15.54
2019-05-10T13:29:57.440Z,15.46
2019-05-10T13:32:23.276Z,15.48
2019-05-10T13:34:49.350Z,15.43
2019-05-10T13:37:23.370Z,15.43
2019-05-10T13:39:43.189Z,15.66
2019-05-10T13:42:09.695Z,15.52
2019-05-10T13:44:37.087Z,15.39
2019-05-10T13:47:05.199Z,15.28
2019-05-10T13:49:31.403Z,15.17
2019-05-10T13:51:57.299Z,15.28
2019-05-10T13:54:23.109Z,15.63
2019-05-10T13:56:52.214Z,15.85
2019-05-10T13:59:18.069Z,16.18
2019-05-10T14:01:49.347Z,16.57
2019-05-10T14:04:12.269Z,17.09
2019-05-10T14:06:38.039Z,17.69
2019-05-10T14:09:07.190Z,18.27
2019-05-10T14:11:34.250Z,18.35
2019-05-10T14:14:00.801Z,18.19
2019-05-10T14:18:53.755Z,17.12
2019-05-10T14:21:19.579Z,16.85
2019-05-10T14:23:48.622Z,16.80
2019-05-10T14:26:16.457Z,17.74
2019-05-10T14:28:42.453Z,18.19
2019-05-10T14:31:08.255Z,17.91
2019-05-10T14:33:34.034Z,17.98
2019-05-10T14:36:03.493Z,17.72
2019-05-10T14:38:29.377Z,17.79
2019-05-10T14:40:55.193Z,17.56
2019-05-10T14:43:21.255Z,17.79
2019-05-10T14:45:50.210Z,17.76
2019-05-10T14:48:16.264Z,17.72
2019-05-10T14:50:46.825Z,17.97
2019-05-10T14:53:13.235Z,18.12
2019-05-10T14:55:39.018Z,18.41
2019-05-10T14:58:05.186Z,18.40
2019-05-10T15:00:33.997Z,18.06
2019-05-10T15:03:02.271Z,18.08
2019-05-10T15:05:27.661Z,18.16
2019-05-10T15:07:53.923Z,18.16
2019-05-10T15:10:19.732Z,18.82
2019-05-10T15:12:45.579Z,19.02
2019-05-10T15:15:11.487Z,19.41
2019-05-10T15:17:40.195Z,19.75
2019-05-10T15:20:06.179Z,19.50
2019-05-10T15:22:37.960Z,19.01
2019-05-10T15:25:04.587Z,18.51
2019-05-10T15:27:30.378Z,18.09
2019-05-10T15:29:58.557Z,18.09
2019-05-10T15:32:26.763Z,18.54
2019-05-10T15:35:05.116Z,17.55
2019-05-10T15:37:20.629Z,18.83
2019-05-10T15:39:46.668Z,19.11
2019-05-10T15:42:12.704Z,18.98
2019-05-10T15:44:38.796Z,18.74
2019-05-10T15:47:04.612Z,18.20
2019-05-10T15:49:33.530Z,18.20
2019-05-10T15:52:16.160Z,17.88
2019-05-10T15:54:27.351Z,17.97
2019-05-10T15:56:55.654Z,17.97
2019-05-10T15:59:21.528Z,18.45
2019-05-10T16:01:47.382Z,18.45
2019-05-10T16:04:15.998Z,18.41
2019-05-10T16:06:42.049Z,17.89
2019-05-10T16:09:17.571Z,18.11
2019-05-10T16:11:38.603Z,18.11
2019-05-10T16:14:04.390Z,17.85
2019-05-10T16:16:36.435Z,17.76
2019-05-10T16:18:57.910Z,18.01
2019-05-10T16:21:23.990Z,18.01
2019-05-10T16:23:49.800Z,18.24
2019-05-10T16:26:23.034Z,18.24
2019-05-10T16:28:46.546Z,17.82
2019-05-10T16:31:12.621Z,17.82
2019-05-10T16:33:38.401Z,17.22
2019-05-10T16:36:08.362Z,16.77
2019-05-10T16:38:34.347Z,16.31
2019-05-10T16:41:00.757Z,16.17
2019-05-10T16:43:26.700Z,16.10
2019-05-10T16:45:55.607Z,16.12
2019-05-10T16:48:21.678Z,16.11
2019-05-10T16:50:50.489Z,16.02
2019-05-10T16:53:16.558Z,16.06
2019-05-10T16:55:42.967Z,16.05
2019-05-10T16:58:09.443Z,16.03
2019-05-10T17:00:40.787Z,16.02
2019-05-10T17:03:04.653Z,15.89
2019-05-10T17:05:30.439Z,15.80
2019-05-10T17:07:58.862Z,15.98
2019-05-10T17:10:26.889Z,15.86
2019-05-10T17:12:52.132Z,16.01
2019-05-10T17:15:17.953Z,16.14
2019-05-10T17:17:45.317Z,16.14
2019-05-10T17:20:15.664Z,16.05
2019-05-10T17:22:40.972Z,16.04
2019-05-10T17:25:07.459Z,15.83
2019-05-10T17:27:36.153Z,16.29
2019-05-10T17:30:02.267Z,16.47
2019-05-10T17:32:28.088Z,16.58
2019-05-10T17:34:54.188Z,16.44
2019-05-10T17:37:19.964Z,16.18
2019-05-10T17:39:48.796Z,16.12
2019-05-10T17:42:14.614Z,15.93
2019-05-10T17:44:43.841Z,15.90
2019-05-10T17:47:09.709Z,15.89
2019-05-10T17:49:38.756Z,15.80
2019-05-10T17:52:04.593Z,15.79
2019-05-10T17:54:33.737Z,15.72
2019-05-10T17:57:01.033Z,15.59
2019-05-10T17:59:26.834Z,15.57
2019-05-10T18:01:52.923Z,15.59
2019-05-10T18:04:21.698Z,15.53
2019-05-10T18:06:47.531Z,15.62
2019-05-10T18:09:13.320Z,15.71
2019-05-10T18:11:42.949Z,15.67
2019-05-10T18:14:06.798Z,15.51
2019-05-10T18:16:32.583Z,15.59
2019-05-10T18:18:58.389Z,15.68
2019-05-10T18:21:27.559Z,15.68
2019-05-10T18:23:58.087Z,15.75
2019-05-10T18:26:21.582Z,15.86
2019-05-10T18:28:47.378Z,15.61
2019-05-10T18:31:16.306Z,15.45
2019-05-10T18:33:44.718Z,15.36
2019-05-10T18:36:12.981Z,15.34
2019-05-10T18:38:39.018Z,15.26
2019-05-10T18:41:10.141Z,15.23
2019-05-10T18:43:40.798Z,15.22
2019-05-10T18:46:03.662Z,15.23
2019-05-10T18:48:29.676Z,15.21
2019-05-10T18:50:55.742Z,14.86
2019-05-10T18:53:21.544Z,14.68
2019-05-10T18:55:47.333Z,14.57
2019-05-10T18:58:13.410Z,14.52
2019-05-10T19:00:40.308Z,14.50
2019-05-10T19:03:08.970Z,14.47
2019-05-10T19:05:34.778Z,14.46
2019-05-10T19:08:05.800Z,14.42
2019-05-10T19:10:31.337Z,14.40
2019-05-10T19:13:01.253Z,14.35
2019-05-10T19:15:24.891Z,14.25
2019-05-10T19:17:50.706Z,14.28
2019-05-10T19:20:18.383Z,14.18
2019-05-10T19:22:44.587Z,14.12
2019-05-10T19:25:12.236Z,14.14
2019-05-10T19:27:43.545Z,14.09
2019-05-10T19:30:06.831Z,14.10
2019-05-10T19:32:32.928Z,14.10
2019-05-10T19:34:59.033Z,14.08
2019-05-10T19:37:30.037Z,14.01
2019-05-10T19:39:52.742Z,13.91
2019-05-10T19:42:18.530Z,13.93
2019-05-10T19:44:47.426Z,13.92
2019-05-10T19:47:17.772Z,13.85
2019-05-10T19:49:45.931Z,13.82
2019-05-10T19:52:11.845Z,13.75
2019-05-10T19:54:37.642Z,13.68
2019-05-10T19:57:03.447Z,13.69
2019-05-10T19:59:29.221Z,13.61
2019-05-10T20:01:54.990Z,13.41
2019-05-10T20:04:20.807Z,13.69
2019-05-10T20:06:49.611Z,13.56
2019-05-10T20:09:15.462Z,13.50
2019-05-10T20:11:44.302Z,13.49
2019-05-10T20:14:10.473Z,13.45
2019-05-10T20:16:52.038Z,13.46
2019-05-10T20:19:09.197Z,13.49
2019-05-10T20:21:35.262Z,13.55
2019-05-10T20:24:01.203Z,13.63
2019-05-10T20:26:27.356Z,13.63
2019-05-10T20:28:53.166Z,13.65
2019-05-10T20:31:22.343Z,13.65
2019-05-10T20:33:48.427Z,13.63
2019-05-10T20:36:14.213Z,13.66
2019-05-10T20:38:40.090Z,13.64
2019-05-10T20:41:05.899Z,13.65
2019-05-10T20:43:34.870Z,13.29
2019-05-10T20:46:00.663Z,13.63
2019-05-10T20:48:29.442Z,13.62
2019-05-10T20:50:55.485Z,13.59
2019-05-10T20:53:24.031Z,13.59
2019-05-10T20:55:49.858Z,13.54
2019-05-10T20:58:18.707Z,13.56
2019-05-10T21:00:44.469Z,13.51
2019-05-10T21:03:13.301Z,13.51
2019-05-10T21:05:39.120Z,13.51
2019-05-10T21:08:16.637Z,13.60
2019-05-10T21:10:35.649Z,13.39
2019-05-10T21:13:01.454Z,13.38
2019-05-10T21:15:27.249Z,13.42
2019-05-10T21:17:53.294Z,13.37
2019-05-10T21:20:19.119Z,13.32
2019-05-10T21:22:45.596Z,13.35
2019-05-10T21:25:13.456Z,13.32
2019-05-10T21:27:39.259Z,13.21
2019-05-10T21:30:10.093Z,13.21
2019-05-10T21:32:35.926Z,13.08
2019-05-10T21:35:04.741Z,13.14
2019-05-10T21:37:30.786Z,13.24
2019-05-10T21:39:59.719Z,13.20
2019-05-10T21:42:25.805Z,13.25
2019-05-10T21:44:54.603Z,13.19
2019-05-10T21:47:20.408Z,13.07
2019-05-10T21:49:46.227Z,12.94
2019-05-10T21:52:12.024Z,12.84
2019-05-10T21:54:38.106Z,12.76
2019-05-10T21:57:03.912Z,12.81
2019-05-10T21:59:29.698Z,12.84
2019-05-10T22:01:58.653Z,12.81
2019-05-10T22:04:24.734Z,12.76
2019-05-10T22:06:53.705Z,12.83
2019-05-10T22:09:19.859Z,12.85
2019-05-10T22:11:48.405Z,12.70
2019-05-10T22:14:14.255Z,12.60
2019-05-10T22:16:43.108Z,12.35
2019-05-10T22:19:09.265Z,12.36
2019-05-10T22:21:38.097Z,12.28
2019-05-10T22:24:04.000Z,12.32
2019-05-10T22:26:30.050Z,12.17
2019-05-10T22:28:55.870Z,12.01
2019-05-10T22:31:22.001Z,11.92
2019-05-10T22:33:50.856Z,11.80
2019-05-10T22:36:16.970Z,11.67
2019-05-10T22:38:46.089Z,11.48
2019-05-10T22:41:11.870Z,11.46
2019-05-10T22:43:39.460Z,11.49
2019-05-10T22:46:05.255Z,11.46
2019-05-10T22:48:33.982Z,11.47
2019-05-10T22:50:59.754Z,11.38
2019-05-10T22:53:28.314Z,11.41
2019-05-10T22:55:54.155Z,11.35
2019-05-10T22:58:22.979Z,11.31
2019-05-10T23:00:48.910Z,11.32
2019-05-10T23:03:14.702Z,11.29
2019-05-10T23:05:40.811Z,11.34
2019-05-10T23:08:06.583Z,11.33
2019-05-10T23:10:35.129Z,11.15
2019-05-10T23:13:00.918Z,11.13
2019-05-10T23:15:29.479Z,11.17
2019-05-10T23:17:55.567Z,11.12
2019-05-10T23:20:24.376Z,11.04
2019-05-10T23:22:50.463Z,11.03
2019-05-10T23:25:19.319Z,10.98
2019-05-10T23:27:45.188Z,10.92
2019-05-10T23:30:14.095Z,10.90
2019-05-10T23:32:39.885Z,10.90
2019-05-10T23:35:08.982Z,10.87
2019-05-10T23:37:35.039Z,10.90
2019-05-10T23:40:00.917Z,10.93
2019-05-10T23:42:26.731Z,10.91
2019-05-10T23:44:52.539Z,10.88
2019-05-10T23:47:20.280Z,10.90
2019-05-10T23:49:46.364Z,10.85
2019-05-10T23:52:15.212Z,10.79
2019-05-10T23:54:40.989Z,10.77
2019-05-10T23:57:09.568Z,10.76
2019-05-10T23:59:35.366Z,10.73
